Time;durP1;ratioP1;P1;durP2;ratioP2;P2;SDS_P1;SDS_P2;PMS_P1;PMS_P2;Temp;Humidity;BMP_temperature;BMP_pressure;BME280_temperature;BME280_humidity;BME280_pressure;Samples;Min_cycle;Max_cycle;Signal;HPM_P1;HPM_P2
2022/07/03 00:01:34;;;;;;;4.90;1.27;;;;;;;;;;5026983;28;20037;-41
2022/07/03 00:03:59;;;;;;;1.15;1.15;;;;;;;;;;5026816;28;20033;-40
2022/07/03 00:06:26;;;;;;;5.10;1.25;;;;;;;;;;5023555;28;20674;-41
2022/07/03 00:08:53;;;;;;;1.42;1.30;;;;;;;;;;5027596;28;20024;-41
2022/07/03 00:11:19;;;;;;;5.47;1.48;;;;;;;;;;5025139;28;20037;-42
2022/07/03 00:13:45;;;;;;;9.73;1.45;;;;;;;;;;5024552;28;20076;-42
2022/07/03 00:16:10;;;;;;;4.70;1.45;;;;;;;;;;5024677;28;20559;-41
2022/07/03 00:18:36;;;;;;;6.03;1.55;;;;;;;;;;5028066;28;20025;-42
2022/07/03 00:21:04;;;;;;;2.50;1.23;;;;;;;;;;5025324;28;20561;-42
2022/07/03 00:23:50;;;;;;;3.80;1.30;;;;;;;;;;5025454;28;20474;-41
2022/07/03 00:26:19;;;;;;;4.07;1.55;;;;;;;;;;5025159;28;20124;-42
2022/07/03 00:28:46;;;;;;;2.50;1.42;;;;;;;;;;5024897;28;20029;-42
2022/07/03 00:31:12;;;;;;;1.33;1.23;;;;;;;;;;5022439;28;20029;-41
2022/07/03 00:33:40;;;;;;;7.65;1.55;;;;;;;;;;5028633;28;20041;-41
2022/07/03 00:36:06;;;;;;;1.40;1.30;;;;;;;;;;5024610;28;20040;-41
2022/07/03 00:38:32;;;;;;;7.55;1.60;;;;;;;;;;5025397;28;20453;-41
2022/07/03 00:40:59;;;;;;;2.13;1.30;;;;;;;;;;5027282;28;20836;-41
2022/07/03 00:43:26;;;;;;;1.48;1.30;;;;;;;;;;5026756;28;20674;-42
2022/07/03 00:45:53;;;;;;;5.60;1.20;;;;;;;;;;5026663;28;20035;-42
2022/07/03 00:48:20;;;;;;;3.65;1.25;;;;;;;;;;5025150;28;20037;-42
2022/07/03 00:50:49;;;;;;;5.38;1.33;;;;;;;;;;5023414;28;20029;-42
2022/07/03 00:53:28;;;;;;;2.45;1.75;;;;;;;;;;5023492;28;20033;-43
2022/07/03 00:55:55;;;;;;;2.30;1.20;;;;;;;;;;5026547;28;20482;-41
2022/07/03 00:58:21;;;;;;;1.98;1.40;;;;;;;;;;5025511;28;20033;-42
2022/07/03 01:00:51;;;;;;;2.28;1.02;;;;;;;;;;5027389;28;20032;-42
2022/07/03 01:03:19;;;;;;;4.40;1.50;;;;;;;;;;5025330;28;20494;-41
2022/07/03 01:05:50;;;;;;;9.70;4.38;;;;;;;;;;5024096;28;20461;-41
2022/07/03 01:08:45;;;;;;;3.55;2.53;;;;;;;;;;5025296;28;20100;-41
2022/07/03 01:11:36;;;;;;;1.88;1.20;;;;;;;;;;5024874;28;20030;-41
2022/07/03 01:14:27;;;;;;;4.60;1.20;;;;;;;;;;5024568;28;20033;-42
2022/07/03 01:17:02;;;;;;;3.42;1.42;;;;;;;;;;5023371;28;20379;-42
2022/07/03 01:19:43;;;;;;;1.70;1.20;;;;;;;;;;5021904;28;20037;-43
2022/07/03 01:22:28;;;;;;;;;;;;;;;;;;5022913;28;20033;-41
2022/07/03 01:25:13;;;;;;;4.28;1.23;;;;;;;;;;5025253;28;19952;-42
2022/07/03 01:27:48;;;;;;;2.78;1.70;;;;;;;;;;5026989;28;20033;-41
2022/07/03 01:30:13;;;;;;;1.70;1.05;;;;;;;;;;5026039;28;20470;-40
2022/07/03 01:32:49;;;;;;;4.03;1.48;;;;;;;;;;5025154;28;20108;-40
2022/07/03 01:35:24;;;;;;;10.25;1.83;;;;;;;;;;5024765;28;20105;-41
2022/07/03 01:37:52;;;;;;;2.83;1.35;;;;;;;;;;5021979;28;20033;-41
2022/07/03 01:40:18;;;;;;;2.20;1.60;;;;;;;;;;5024854;28;20052;-41
2022/07/03 01:42:45;;;;;;;5.85;1.48;;;;;;;;;;5025584;28;20052;-41
2022/07/03 01:45:14;;;;;;;5.20;1.52;;;;;;;;;;5023127;28;20072;-41
2022/07/03 01:47:41;;;;;;;2.85;1.40;;;;;;;;;;5022883;28;20056;-41
2022/07/03 01:50:12;;;;;;;2.97;1.52;;;;;;;;;;5024451;28;20087;-42
2022/07/03 01:52:41;;;;;;;6.43;1.57;;;;;;;;;;5024581;28;20029;-42
2022/07/03 01:55:09;;;;;;;1.85;1.25;;;;;;;;;;5025203;28;20041;-42
2022/07/03 01:57:47;;;;;;;1.10;1.10;;;;;;;;;;5022604;28;20501;-41
2022/07/03 02:00:17;;;;;;;6.22;1.60;;;;;;;;;;5025008;28;20069;-44
2022/07/03 02:02:50;;;;;;;7.93;1.83;;;;;;;;;;5024636;28;20064;-41
2022/07/03 02:05:23;;;;;;;3.83;1.10;;;;;;;;;;5022996;28;20065;-43
2022/07/03 02:08:21;;;;;;;1.80;1.10;;;;;;;;;;5022902;28;20025;-42
2022/07/03 02:11:05;;;;;;;1.80;1.25;;;;;;;;;;5023148;28;20681;-41
2022/07/03 02:13:49;;;;;;;2.45;1.40;;;;;;;;;;5022292;28;20042;-41
2022/07/03 02:16:22;;;;;;;3.75;1.02;;;;;;;;;;5021964;28;20071;-42
2022/07/03 02:19:04;;;;;;;1.77;1.02;;;;;;;;;;5025320;28;20025;-41
2022/07/03 02:21:30;;;;;;;1.60;1.27;;;;;;;;;;5024378;28;20033;-41
2022/07/03 02:24:22;;;;;;;4.97;1.50;;;;;;;;;;5023629;28;20103;-41
2022/07/03 02:26:58;;;;;;;2.58;1.10;;;;;;;;;;5022563;28;20944;-41
2022/07/03 02:29:32;;;;;;;2.47;1.20;;;;;;;;;;5021556;28;20085;-42
2022/07/03 02:32:02;;;;;;;2.17;1.10;;;;;;;;;;5024570;28;20029;-41
2022/07/03 02:34:29;;;;;;;4.55;1.10;;;;;;;;;;5022542;28;20057;-42
2022/07/03 02:37:09;;;;;;;3.40;1.08;;;;;;;;;;5029440;28;20078;-43
2022/07/03 02:39:44;;;;;;;3.30;1.20;;;;;;;;;;5029713;28;20068;-41
2022/07/03 02:42:24;;;;;;;1.58;1.13;;;;;;;;;;5025650;28;20056;-41
2022/07/03 02:44:53;;;;;;;1.83;1.27;;;;;;;;;;5027704;28;20498;-41
2022/07/03 02:47:22;;;;;;;5.35;1.20;;;;;;;;;;5027731;28;20022;-41
2022/07/03 02:50:11;;;;;;;3.10;1.20;;;;;;;;;;5027661;28;20136;-42
2022/07/03 02:52:43;;;;;;;5.18;1.13;;;;;;;;;;5025806;28;20045;-42
2022/07/03 02:55:34;;;;;;;1.30;1.10;;;;;;;;;;5026888;28;20037;-42
2022/07/03 02:58:14;;;;;;;4.47;1.40;;;;;;;;;;5026724;28;20071;-42
2022/07/03 03:00:45;;;;;;;2.45;1.30;;;;;;;;;;5028222;28;20108;-40
2022/07/03 03:03:11;;;;;;;4.75;1.40;;;;;;;;;;5027416;28;20078;-41
2022/07/03 03:05:45;;;;;;;1.40;1.25;;;;;;;;;;5028050;28;20494;-41
2022/07/03 03:08:34;;;;;;;2.15;1.52;;;;;;;;;;5028417;28;20026;-40
2022/07/03 03:11:08;;;;;;;1.48;1.20;;;;;;;;;;5027892;28;20394;-42
2022/07/03 03:13:35;;;;;;;1.67;1.20;;;;;;;;;;5026098;28;20479;-42
2022/07/03 03:16:04;;;;;;;2.70;1.60;;;;;;;;;;5029566;28;20394;-40
2022/07/03 03:18:33;;;;;;;4.10;1.60;;;;;;;;;;5029676;28;20025;-41
2022/07/03 03:21:00;;;;;;;6.82;1.40;;;;;;;;;;5024733;28;20033;-41
2022/07/03 03:23:48;;;;;;;3.90;1.50;;;;;;;;;;5028503;28;20022;-41
2022/07/03 03:26:19;;;;;;;5.20;1.42;;;;;;;;;;5028559;28;20112;-42
2022/07/03 03:28:45;;;;;;;4.00;1.50;;;;;;;;;;5027429;28;20515;-41
2022/07/03 03:31:11;;;;;;;13.20;1.33;;;;;;;;;;5028554;28;20040;-41
2022/07/03 03:33:42;;;;;;;1.42;1.30;;;;;;;;;;5028594;28;20563;-41
2022/07/03 03:36:10;;;;;;;1.55;1.27;;;;;;;;;;5024615;28;20017;-41
2022/07/03 03:38:37;;;;;;;1.40;1.30;;;;;;;;;;5028096;28;20445;-41
2022/07/03 03:41:04;;;;;;;1.25;1.10;;;;;;;;;;5028156;28;20738;-41
2022/07/03 03:43:30;;;;;;;1.42;1.10;;;;;;;;;;5026629;28;20041;-42
2022/07/03 03:45:57;;;;;;;1.40;1.13;;;;;;;;;;5028657;28;20390;-42
2022/07/03 03:48:22;;;;;;;3.30;1.33;;;;;;;;;;5026682;28;20034;-41
2022/07/03 03:50:49;;;;;;;1.92;1.00;;;;;;;;;;5026013;28;20028;-42
2022/07/03 03:53:15;;;;;;;2.80;1.30;;;;;;;;;;5026005;28;20564;-41
2022/07/03 03:56:07;;;;;;;1.63;1.13;;;;;;;;;;5028463;28;20065;-42
2022/07/03 03:58:35;;;;;;;3.30;1.20;;;;;;;;;;5028078;28;20486;-41
2022/07/03 04:01:03;;;;;;;3.40;1.45;;;;;;;;;;5026216;28;20037;-42
2022/07/03 04:03:29;;;;;;;10.73;1.50;;;;;;;;;;5027020;28;20044;-43
2022/07/03 04:05:55;;;;;;;1.70;1.10;;;;;;;;;;5026541;28;20172;-41
2022/07/03 04:08:22;;;;;;;2.67;1.10;;;;;;;;;;5026007;28;20033;-41
2022/07/03 04:10:48;;;;;;;5.15;1.00;;;;;;;;;;5025965;28;20051;-41
2022/07/03 04:13:16;;;;;;;3.20;0.95;;;;;;;;;;5026406;28;20041;-42
2022/07/03 04:16:01;;;;;;;1.55;1.13;;;;;;;;;;5026329;28;20112;-42
2022/07/03 04:18:28;;;;;;;2.05;1.30;;;;;;;;;;5027154;28;20030;-42
2022/07/03 04:20:53;;;;;;;1.17;1.05;;;;;;;;;;5026310;28;20044;-44
2022/07/03 04:23:19;;;;;;;0.85;0.73;;;;;;;;;;5026097;28;20131;-41
2022/07/03 04:25:45;;;;;;;1.77;0.98;;;;;;;;;;5049955;28;20485;-41
2022/07/03 04:28:10;;;;;;;1.55;1.08;;;;;;;;;;5025971;28;20116;-42
2022/07/03 04:30:36;;;;;;;1.98;1.20;;;;;;;;;;5029105;28;20144;-41
2022/07/03 04:33:02;;;;;;;5.03;1.35;;;;;;;;;;5022724;28;20034;-42
2022/07/03 04:35:27;;;;;;;2.35;1.50;;;;;;;;;;5027130;28;20028;-41
2022/07/03 04:37:53;;;;;;;2.50;1.10;;;;;;;;;;5027519;28;20053;-41
2022/07/03 04:40:19;;;;;;;4.90;1.40;;;;;;;;;;5025573;28;20478;-42
2022/07/03 04:42:45;;;;;;;3.40;1.10;;;;;;;;;;5026045;28;20021;-42
2022/07/03 04:45:10;;;;;;;8.73;1.40;;;;;;;;;;5027274;28;20033;-41
2022/07/03 04:47:36;;;;;;;4.72;1.33;;;;;;;;;;5024247;28;20033;-41
2022/07/03 04:50:02;;;;;;;7.10;2.85;;;;;;;;;;5025420;28;20044;-43
2022/07/03 04:52:28;;;;;;;3.72;3.00;;;;;;;;;;5027563;28;20021;-43
2022/07/03 04:54:54;;;;;;;6.00;2.53;;;;;;;;;;5026890;28;20037;-42
2022/07/03 04:57:19;;;;;;;4.57;1.80;;;;;;;;;;5025879;28;20045;-41
2022/07/03 04:59:46;;;;;;;2.03;1.42;;;;;;;;;;5024619;28;20033;-44
2022/07/03 05:02:12;;;;;;;4.07;1.80;;;;;;;;;;5026304;28;20541;-42
2022/07/03 05:04:38;;;;;;;2.67;1.65;;;;;;;;;;5025723;28;20046;-41
2022/07/03 05:07:03;;;;;;;1.95;1.42;;;;;;;;;;5026532;28;20057;-41
2022/07/03 05:09:29;;;;;;;4.93;1.45;;;;;;;;;;5026840;28;20037;-42
2022/07/03 05:11:55;;;;;;;5.43;1.35;;;;;;;;;;5025059;28;20037;-41
2022/07/03 05:14:21;;;;;;;2.22;1.40;;;;;;;;;;5026124;28;20065;-42
2022/07/03 05:16:46;;;;;;;3.78;1.40;;;;;;;;;;5026235;28;20037;-44
2022/07/03 05:19:12;;;;;;;6.22;1.35;;;;;;;;;;5022667;28;20492;-42
2022/07/03 05:21:38;;;;;;;1.55;1.13;;;;;;;;;;5026232;28;20056;-43
2022/07/03 05:24:04;;;;;;;5.05;1.13;;;;;;;;;;5025645;28;20117;-41
2022/07/03 05:26:29;;;;;;;1.75;1.13;;;;;;;;;;5025920;28;20060;-42
2022/07/03 05:28:55;;;;;;;3.80;0.95;;;;;;;;;;5025392;28;20550;-41
2022/07/03 05:31:21;;;;;;;0.85;0.85;;;;;;;;;;5024971;28;20034;-42
2022/07/03 05:33:47;;;;;;;3.45;1.10;;;;;;;;;;5026060;28;20049;-42
2022/07/03 05:36:12;;;;;;;2.47;0.77;;;;;;;;;;5025383;28;20025;-41
2022/07/03 05:41:22;;;;;;;4.70;1.30;;;;;;;;;;5025136;28;20478;-42
2022/07/03 05:43:48;;;;;;;3.05;0.98;;;;;;;;;;5025010;28;20052;-42
2022/07/03 05:46:14;;;;;;;3.88;1.30;;;;;;;;;;5023503;28;20052;-41
2022/07/03 05:48:40;;;;;;;2.00;1.35;;;;;;;;;;5026501;28;20453;-41
2022/07/03 05:51:05;;;;;;;6.57;1.33;;;;;;;;;;5025331;28;20021;-41
2022/07/03 05:53:31;;;;;;;6.18;1.73;;;;;;;;;;5024959;28;20053;-44
2022/07/03 05:55:58;;;;;;;3.30;1.50;;;;;;;;;;5025843;28;20039;-44
2022/07/03 05:58:23;;;;;;;1.75;1.40;;;;;;;;;;5026294;28;20041;-41
2022/07/03 06:00:49;;;;;;;3.90;1.42;;;;;;;;;;5026362;28;20037;-42
2022/07/03 06:03:15;;;;;;;3.80;1.10;;;;;;;;;;5022488;28;20111;-43
2022/07/03 06:05:40;;;;;;;1.08;1.02;;;;;;;;;;5024938;28;20049;-42
2022/07/03 06:08:07;;;;;;;6.25;1.17;;;;;;;;;;5026094;28;20488;-42
2022/07/03 06:10:33;;;;;;;5.07;1.10;;;;;;;;;;5028282;28;20132;-41
2022/07/03 06:12:59;;;;;;;3.33;1.10;;;;;;;;;;5029369;28;20041;-43
2022/07/03 06:15:25;;;;;;;3.53;1.30;;;;;;;;;;5025333;28;20474;-42
2022/07/03 06:17:51;;;;;;;2.90;1.00;;;;;;;;;;5026749;28;20033;-42
2022/07/03 06:20:17;;;;;;;2.42;1.30;;;;;;;;;;5027344;28;20125;-41
2022/07/03 06:22:43;;;;;;;5.00;2.28;;;;;;;;;;5027705;28;20032;-42
2022/07/03 06:25:08;;;;;;;3.65;1.10;;;;;;;;;;5026497;28;20037;-41
2022/07/03 06:27:34;;;;;;;1.15;0.93;;;;;;;;;;5027616;28;20053;-42
2022/07/03 06:30:00;;;;;;;1.80;1.40;;;;;;;;;;5026161;28;20124;-41
2022/07/03 06:32:26;;;;;;;4.25;0.98;;;;;;;;;;5027643;28;20064;-41
2022/07/03 06:34:52;;;;;;;2.92;1.02;;;;;;;;;;5025397;28;20050;-42
2022/07/03 06:37:18;;;;;;;3.72;1.10;;;;;;;;;;5029189;28;20053;-41
2022/07/03 06:39:44;;;;;;;3.38;1.13;;;;;;;;;;5029817;28;20037;-42
2022/07/03 06:42:10;;;;;;;1.85;1.02;;;;;;;;;;5027850;28;20381;-42
2022/07/03 06:44:36;;;;;;;4.18;1.20;;;;;;;;;;5028809;28;20026;-42
2022/07/03 06:47:04;;;;;;;1.13;1.00;;;;;;;;;;5026694;28;20022;-42
2022/07/03 06:49:34;;;;;;;6.10;1.45;;;;;;;;;;5028768;28;20037;-42
2022/07/03 06:51:59;;;;;;;1.98;1.40;;;;;;;;;;5026850;28;20021;-41
2022/07/03 06:54:25;;;;;;;4.72;0.85;;;;;;;;;;5026592;28;20028;-43
2022/07/03 06:56:51;;;;;;;1.40;1.10;;;;;;;;;;5027792;28;20113;-42
2022/07/03 06:59:17;;;;;;;11.65;1.80;;;;;;;;;;5029743;28;20033;-42
2022/07/03 07:01:43;;;;;;;1.55;0.75;;;;;;;;;;5027341;28;20033;-41
2022/07/03 07:04:08;;;;;;;3.17;1.20;;;;;;;;;;5027116;28;20112;-41
2022/07/03 07:06:34;;;;;;;1.73;1.10;;;;;;;;;;5030335;28;20413;-42
2022/07/03 07:09:00;;;;;;;2.55;1.20;;;;;;;;;;5028363;28;20041;-43
2022/07/03 07:11:26;;;;;;;5.50;1.30;;;;;;;;;;5027181;28;20033;-41
2022/07/03 07:13:52;;;;;;;7.03;1.58;;;;;;;;;;5029304;28;20039;-42
2022/07/03 07:16:17;;;;;;;8.73;1.30;;;;;;;;;;5024970;28;20037;-42
2022/07/03 07:18:43;;;;;;;3.58;1.20;;;;;;;;;;5028391;28;20034;-41
2022/07/03 07:21:10;;;;;;;2.20;1.20;;;;;;;;;;5026016;28;20037;-41
2022/07/03 07:23:36;;;;;;;3.42;1.50;;;;;;;;;;5028652;28;20026;-44
2022/07/03 07:26:02;;;;;;;1.25;1.15;;;;;;;;;;5027799;28;20039;-42
2022/07/03 07:28:28;;;;;;;4.65;1.27;;;;;;;;;;5027006;28;20026;-43
2022/07/03 07:30:56;;;;;;;2.10;1.52;;;;;;;;;;5030395;28;20030;-42
2022/07/03 07:33:21;;;;;;;3.22;1.40;;;;;;;;;;5024735;28;20029;-40
2022/07/03 07:35:48;;;;;;;2.22;1.48;;;;;;;;;;5027066;28;20494;-42
2022/07/03 07:38:14;;;;;;;5.97;1.67;;;;;;;;;;5028236;28;20052;-42
2022/07/03 07:40:39;;;;;;;3.50;1.40;;;;;;;;;;5028078;28;20025;-42
2022/07/03 07:43:05;;;;;;;2.40;1.30;;;;;;;;;;5026914;28;20145;-43
2022/07/03 07:45:30;;;;;;;17.20;2.10;;;;;;;;;;5027970;28;20029;-42
2022/07/03 07:47:56;;;;;;;5.63;1.88;;;;;;;;;;5026730;28;20037;-42
2022/07/03 07:50:22;;;;;;;6.05;1.85;;;;;;;;;;5027840;28;20033;-42
2022/07/03 07:52:48;;;;;;;2.60;1.48;;;;;;;;;;5026500;28;20041;-42
2022/07/03 07:55:14;;;;;;;3.38;1.60;;;;;;;;;;5027734;28;20030;-42
2022/07/03 07:57:41;;;;;;;3.08;1.80;;;;;;;;;;5028610;28;20025;-43
2022/07/03 08:00:11;;;;;;;6.55;1.60;;;;;;;;;;5028635;28;20030;-43
2022/07/03 08:05:38;;;;;;;2.55;2.30;;;;;;;;;;5026005;28;20057;-42
2022/07/03 08:08:06;;;;;;;2.40;2.20;;;;;;;;;;5025968;28;20095;-42
2022/07/03 08:10:35;;;;;;;4.72;1.80;;;;;;;;;;5025223;28;20287;-43
2022/07/03 08:13:02;;;;;;;6.95;2.30;;;;;;;;;;5027019;28;20402;-43
2022/07/03 08:15:27;;;;;;;4.80;2.10;;;;;;;;;;5027371;28;20083;-43
2022/07/03 08:17:53;;;;;;;3.78;2.00;;;;;;;;;;5024611;28;20440;-42
2022/07/03 08:20:19;;;;;;;3.25;1.90;;;;;;;;;;5025986;28;20046;-43
2022/07/03 08:22:44;;;;;;;7.57;2.00;;;;;;;;;;5028416;28;20025;-44
2022/07/03 08:25:10;;;;;;;7.07;1.90;;;;;;;;;;5026921;28;20025;-42
2022/07/03 08:27:36;;;;;;;2.00;1.80;;;;;;;;;;5027843;28;20078;-41
2022/07/03 08:30:02;;;;;;;5.68;1.98;;;;;;;;;;5026832;28;20033;-41
2022/07/03 08:32:29;;;;;;;4.72;2.10;;;;;;;;;;5024745;28;20028;-42
2022/07/03 08:34:55;;;;;;;3.45;1.60;;;;;;;;;;5023171;28;20391;-43
2022/07/03 08:37:20;;;;;;;2.83;2.00;;;;;;;;;;5024170;28;20105;-41
2022/07/03 08:39:46;;;;;;;1.92;1.70;;;;;;;;;;5027445;28;20033;-43
2022/07/03 08:42:15;;;;;;;2.03;1.83;;;;;;;;;;5023554;28;20037;-43
2022/07/03 08:44:42;;;;;;;7.38;2.03;;;;;;;;;;5022232;28;20025;-43
2022/07/03 08:47:11;;;;;;;5.60;2.00;;;;;;;;;;5025852;28;20037;-43
2022/07/03 08:49:37;;;;;;;4.40;1.75;;;;;;;;;;5026998;28;20040;-44
2022/07/03 08:52:07;;;;;;;4.38;1.48;;;;;;;;;;5026468;28;20030;-42
2022/07/03 08:54:35;;;;;;;6.35;1.60;;;;;;;;;;5027894;28;20108;-42
2022/07/03 08:57:01;;;;;;;3.95;1.90;;;;;;;;;;5024735;28;20031;-42
2022/07/03 08:59:51;;;;;;;3.90;1.65;;;;;;;;;;5025548;28;20068;-42
2022/07/03 09:02:18;;;;;;;4.30;1.55;;;;;;;;;;5024471;28;20113;-42
2022/07/03 09:04:44;;;;;;;4.45;1.65;;;;;;;;;;5024141;28;20670;-43
2022/07/03 09:07:12;;;;;;;3.00;1.95;;;;;;;;;;5025486;28;20033;-43
2022/07/03 09:09:39;;;;;;;2.22;1.52;;;;;;;;;;5027270;28;20183;-45
2022/07/03 09:12:05;;;;;;;3.00;1.80;;;;;;;;;;5026105;28;20068;-41
2022/07/03 09:14:30;;;;;;;1.70;1.52;;;;;;;;;;5025765;28;20072;-42
2022/07/03 09:16:56;;;;;;;2.53;1.60;;;;;;;;;;5024089;28;20033;-42
2022/07/03 09:19:47;;;;;;;1.60;1.50;;;;;;;;;;5026631;28;20766;-42
2022/07/03 09:22:18;;;;;;;4.57;1.65;;;;;;;;;;5024887;28;20040;-42
2022/07/03 09:24:44;;;;;;;1.75;1.60;;;;;;;;;;5026732;28;20087;-43
2022/07/03 09:27:16;;;;;;;2.22;1.48;;;;;;;;;;5025011;28;20037;-43
2022/07/03 09:30:05;;;;;;;1.40;1.30;;;;;;;;;;5026226;28;20033;-42
2022/07/03 09:32:51;;;;;;;4.07;1.83;;;;;;;;;;5022194;28;20498;-42
2022/07/03 09:35:20;;;;;;;3.47;1.63;;;;;;;;;;5022354;28;20060;-42
2022/07/03 09:38:02;;;;;;;3.00;1.70;;;;;;;;;;5024691;28;20029;-43
2022/07/03 09:40:50;;;;;;;7.07;1.90;;;;;;;;;;5019945;28;20545;-42
2022/07/03 09:43:22;;;;;;;2.63;1.40;;;;;;;;;;5023551;28;20025;-42
2022/07/03 09:45:53;;;;;;;3.92;1.52;;;;;;;;;;5025651;28;20033;-42
2022/07/03 09:48:25;;;;;;;;;;;;;;;;;;5024174;28;20048;-42
2022/07/03 09:51:09;;;;;;;2.47;1.35;;;;;;;;;;5025307;28;19949;-42
2022/07/03 09:54:03;;;;;;;1.73;1.40;;;;;;;;;;5024391;28;20033;-42
2022/07/03 09:56:35;;;;;;;4.38;1.45;;;;;;;;;;5024254;28;20036;-43
2022/07/03 09:59:11;;;;;;;2.67;1.48;;;;;;;;;;5027479;28;20116;-42
2022/07/03 10:01:37;;;;;;;5.25;2.15;;;;;;;;;;5022982;28;20042;-42
2022/07/03 10:04:14;;;;;;;5.65;1.98;;;;;;;;;;5025652;28;20034;-43
2022/07/03 10:06:56;;;;;;;5.00;1.63;;;;;;;;;;5025385;28;20486;-43
2022/07/03 10:09:23;;;;;;;6.60;1.45;;;;;;;;;;5025342;28;20041;-41
2022/07/03 10:11:50;;;;;;;5.32;1.60;;;;;;;;;;5022384;28;20390;-43
2022/07/03 10:14:18;;;;;;;2.55;1.23;;;;;;;;;;5024847;28;20018;-43
2022/07/03 10:16:45;;;;;;;4.55;1.42;;;;;;;;;;5024920;28;20490;-42
2022/07/03 10:19:18;;;;;;;7.93;1.75;;;;;;;;;;5025524;28;20427;-42
2022/07/03 10:21:50;;;;;;;5.20;1.60;;;;;;;;;;5024264;28;20045;-43
2022/07/03 10:24:17;;;;;;;1.55;1.45;;;;;;;;;;5025429;28;20057;-42
2022/07/03 10:26:43;;;;;;;4.05;1.80;;;;;;;;;;5024080;28;20025;-45
2022/07/03 10:29:10;;;;;;;5.35;1.67;;;;;;;;;;5025958;28;20390;-43
2022/07/03 10:31:40;;;;;;;6.63;1.73;;;;;;;;;;5022844;28;20109;-43
2022/07/03 10:34:06;;;;;;;3.35;1.65;;;;;;;;;;5023757;28;20033;-42
2022/07/03 10:36:36;;;;;;;5.97;1.63;;;;;;;;;;5023721;28;20080;-43
2022/07/03 10:39:05;;;;;;;2.55;1.60;;;;;;;;;;5020675;28;20037;-43
2022/07/03 10:47:41;;;;;;;4.88;1.92;;;;;;;;;;5022108;28;20365;-42
2022/07/03 10:50:11;;;;;;;6.28;1.45;;;;;;;;;;5022593;28;20098;-42
2022/07/03 10:52:38;;;;;;;5.10;2.17;;;;;;;;;;5023357;28;20025;-43
2022/07/03 10:55:06;;;;;;;5.82;2.20;;;;;;;;;;5024281;28;20037;-42
2022/07/03 10:57:36;;;;;;;2.90;2.03;;;;;;;;;;5024797;28;20114;-44
2022/07/03 11:00:16;;;;;;;6.23;2.10;;;;;;;;;;5029208;28;20477;-43
2022/07/03 11:02:44;;;;;;;6.63;3.53;;;;;;;;;;5025170;28;20033;-41
2022/07/03 11:05:21;;;;;;;11.68;2.47;;;;;;;;;;5024745;28;20088;-43
2022/07/03 11:07:50;;;;;;;16.52;3.05;;;;;;;;;;5023093;28;20049;-42
2022/07/03 11:10:16;;;;;;;7.20;2.60;;;;;;;;;;5023534;28;20129;-43
2022/07/03 11:13:16;;;;;;;12.73;2.63;;;;;;;;;;5026946;28;20034;-43
2022/07/03 11:15:54;;;;;;;7.18;2.53;;;;;;;;;;5025386;28;20160;-42
2022/07/03 11:18:23;;;;;;;12.80;4.70;;;;;;;;;;5025621;28;20029;-42
2022/07/03 11:20:48;;;;;;;7.75;2.28;;;;;;;;;;5027808;28;20033;-44
2022/07/03 11:23:26;;;;;;;9.48;2.85;;;;;;;;;;5027715;28;20033;-43
2022/07/03 11:25:54;;;;;;;9.48;2.90;;;;;;;;;;5028147;28;20033;-43
2022/07/03 11:28:32;;;;;;;5.72;3.50;;;;;;;;;;5027857;28;20029;-42
2022/07/03 11:31:16;;;;;;;8.57;3.35;;;;;;;;;;5027666;28;20041;-43
2022/07/03 11:33:41;;;;;;;10.13;4.38;;;;;;;;;;5027722;28;20041;-42
2022/07/03 11:36:16;;;;;;;9.75;3.38;;;;;;;;;;5027484;28;20039;-42
2022/07/03 11:38:45;;;;;;;12.05;3.28;;;;;;;;;;5026019;28;20029;-46
2022/07/03 11:41:13;;;;;;;13.55;3.30;;;;;;;;;;5026281;28;20049;-43
2022/07/03 11:43:47;;;;;;;12.20;4.03;;;;;;;;;;5027940;28;20037;-42
2022/07/03 11:46:17;;;;;;;13.52;3.65;;;;;;;;;;5027951;28;20021;-43
2022/07/03 11:48:43;;;;;;;9.80;3.28;;;;;;;;;;5027408;28;20116;-44
2022/07/03 11:51:08;;;;;;;9.88;3.40;;;;;;;;;;5026982;28;20116;-42
2022/07/03 11:53:39;;;;;;;9.25;3.17;;;;;;;;;;5025733;28;20104;-42
2022/07/03 11:56:15;;;;;;;10.85;3.40;;;;;;;;;;5026335;28;20030;-43
2022/07/03 11:58:46;;;;;;;9.77;3.42;;;;;;;;;;5028353;28;20025;-43
2022/07/03 12:01:23;;;;;;;9.25;2.92;;;;;;;;;;5027376;28;20033;-43
2022/07/03 12:03:49;;;;;;;6.78;2.70;;;;;;;;;;5028866;28;20068;-42
2022/07/03 12:06:16;;;;;;;9.05;2.90;;;;;;;;;;5026378;28;20069;-43
2022/07/03 12:08:46;;;;;;;8.07;2.10;;;;;;;;;;5026858;28;20052;-43
2022/07/03 12:11:13;;;;;;;7.95;2.03;;;;;;;;;;5028476;28;20033;-42
2022/07/03 12:13:39;;;;;;;5.00;2.28;;;;;;;;;;5026790;28;20036;-44
2022/07/03 12:16:05;;;;;;;5.10;3.03;;;;;;;;;;5026689;28;20037;-43
2022/07/03 12:18:54;;;;;;;9.23;2.60;;;;;;;;;;5027055;28;20040;-43
2022/07/03 12:21:22;;;;;;;5.35;2.17;;;;;;;;;;5026305;28;20034;-43
2022/07/03 12:23:53;;;;;;;4.57;1.95;;;;;;;;;;5023881;28;22917;-43
2022/07/03 12:26:31;;;;;;;;;;;;;;;;;;5026335;28;20029;-42
2022/07/03 12:28:59;;;;;;;4.95;2.30;;;;;;;;;;5024658;28;19917;-44
2022/07/03 12:31:26;;;;;;;4.93;2.13;;;;;;;;;;5024837;28;20037;-43
2022/07/03 12:33:52;;;;;;;3.00;2.05;;;;;;;;;;5027441;28;20524;-42
2022/07/03 12:36:18;;;;;;;5.20;1.90;;;;;;;;;;5023845;28;20658;-42
2022/07/03 12:38:57;;;;;;;5.93;2.10;;;;;;;;;;5046763;28;20088;-42
2022/07/03 12:41:24;;;;;;;6.57;1.65;;;;;;;;;;5022036;28;20163;-44
2022/07/03 12:43:51;;;;;;;7.25;1.77;;;;;;;;;;5026158;28;20041;-42
2022/07/03 12:46:18;;;;;;;5.18;1.80;;;;;;;;;;5024402;28;20033;-42
2022/07/03 12:48:52;;;;;;;9.30;1.98;;;;;;;;;;5025045;28;20025;-45
2022/07/03 12:51:40;;;;;;;8.45;1.60;;;;;;;;;;5024933;28;20033;-43
2022/07/03 12:54:21;;;;;;;5.35;2.20;;;;;;;;;;5022635;28;20033;-44
2022/07/03 12:59:16;;;;;;;4.10;1.80;;;;;;;;;;5026438;28;20026;-43
2022/07/03 13:00:09;;;;;;;2.95;1.45;;;;;;;;;;5025815;28;20037;-43
2022/07/03 13:02:39;;;;;;;6.32;1.50;;;;;;;;;;5027005;28;20025;-45
2022/07/03 13:05:19;;;;;;;5.40;2.10;;;;;;;;;;5024191;28;20501;-43
2022/07/03 13:07:47;;;;;;;2.03;1.80;;;;;;;;;;5022660;28;20871;-42
2022/07/03 13:10:15;;;;;;;3.25;1.55;;;;;;;;;;5026495;28;20025;-43
2022/07/03 13:12:47;;;;;;;10.88;1.60;;;;;;;;;;5025968;28;20032;-44
2022/07/03 13:15:13;;;;;;;7.57;1.77;;;;;;;;;;5019319;28;20123;-43
2022/07/03 13:17:54;;;;;;;2.47;1.50;;;;;;;;;;5024541;28;20045;-42
2022/07/03 13:20:34;;;;;;;4.45;2.00;;;;;;;;;;5023689;28;20124;-42
2022/07/03 13:23:02;;;;;;;3.55;1.60;;;;;;;;;;5025610;28;20034;-43
2022/07/03 13:25:29;;;;;;;3.45;1.70;;;;;;;;;;5025173;28;20509;-42
2022/07/03 13:28:04;;;;;;;15.10;2.38;;;;;;;;;;5028344;28;20517;-43
2022/07/03 13:30:30;;;;;;;2.35;1.63;;;;;;;;;;5025670;28;20121;-45
2022/07/03 13:32:56;;;;;;;4.80;2.20;;;;;;;;;;5026048;28;20108;-44
2022/07/03 13:35:21;;;;;;;5.22;1.67;;;;;;;;;;5025109;28;20120;-43
2022/07/03 13:37:47;;;;;;;4.10;1.90;;;;;;;;;;5026651;28;20036;-43
2022/07/03 13:40:13;;;;;;;4.40;1.80;;;;;;;;;;5024155;28;20041;-42
2022/07/03 13:42:38;;;;;;;4.68;1.77;;;;;;;;;;5027896;28;20083;-42
2022/07/03 13:45:04;;;;;;;1.98;1.83;;;;;;;;;;5024369;28;20030;-43
2022/07/03 13:47:30;;;;;;;5.18;1.70;;;;;;;;;;5024980;28;20915;-42
2022/07/03 13:49:56;;;;;;;9.40;2.40;;;;;;;;;;5026045;28;20047;-43
2022/07/03 13:52:22;;;;;;;2.25;2.05;;;;;;;;;;5025346;28;20460;-42
2022/07/03 13:54:48;;;;;;;6.03;2.35;;;;;;;;;;5027689;28;20587;-42
2022/07/03 13:57:14;;;;;;;2.15;1.75;;;;;;;;;;5023925;28;20038;-43
2022/07/03 13:59:39;;;;;;;6.10;1.67;;;;;;;;;;5025903;28;20493;-43
2022/07/03 14:02:06;;;;;;;5.78;2.00;;;;;;;;;;5024105;28;20104;-43
2022/07/03 14:04:31;;;;;;;2.97;1.65;;;;;;;;;;5022898;28;20041;-43
2022/07/03 14:06:57;;;;;;;3.13;1.90;;;;;;;;;;5027063;28;20033;-43
2022/07/03 14:09:24;;;;;;;4.88;1.95;;;;;;;;;;5026379;28;20497;-43
2022/07/03 14:11:49;;;;;;;7.30;2.10;;;;;;;;;;5021581;28;20033;-43
2022/07/03 14:14:16;;;;;;;2.75;1.90;;;;;;;;;;5025382;28;20045;-43
2022/07/03 14:16:41;;;;;;;4.93;1.85;;;;;;;;;;5025707;28;20022;-43
2022/07/03 14:19:07;;;;;;;6.00;2.00;;;;;;;;;;5025446;28;20087;-42
2022/07/03 14:21:34;;;;;;;3.00;1.63;;;;;;;;;;5025428;28;20044;-42
2022/07/03 14:23:59;;;;;;;2.22;1.70;;;;;;;;;;5025474;28;20037;-43
2022/07/03 14:34:40;;;;;;;7.90;1.40;;;;;;;;;;5029720;28;20045;-44
2022/07/03 14:37:06;;;;;;;3.83;1.63;;;;;;;;;;5029159;28;20033;-43
2022/07/03 14:39:31;;;;;;;14.82;2.05;;;;;;;;;;5028946;28;20095;-43
2022/07/03 14:41:57;;;;;;;5.82;1.45;;;;;;;;;;5028747;28;20047;-43
2022/07/03 14:44:25;;;;;;;1.27;1.17;;;;;;;;;;5028961;28;20112;-43
2022/07/03 14:46:54;;;;;;;2.35;1.27;;;;;;;;;;5027645;28;20508;-43
2022/07/03 14:49:20;;;;;;;6.68;1.55;;;;;;;;;;5027938;28;20037;-43
2022/07/03 14:51:46;;;;;;;4.78;1.35;;;;;;;;;;5031205;28;20091;-44
2022/07/03 14:54:17;;;;;;;1.45;1.35;;;;;;;;;;5028680;28;20033;-43
2022/07/03 14:56:55;;;;;;;3.63;1.87;;;;;;;;;;5026398;28;20056;-43
2022/07/03 14:59:38;;;;;;;1.60;1.20;;;;;;;;;;5029463;28;20270;-42
2022/07/03 15:02:06;;;;;;;2.55;1.30;;;;;;;;;;5026856;28;20393;-43
2022/07/03 15:04:34;;;;;;;4.07;1.60;;;;;;;;;;5027206;28;20117;-42
2022/07/03 15:07:00;;;;;;;5.75;1.30;;;;;;;;;;5029987;28;20040;-45
2022/07/03 15:09:36;;;;;;;2.97;1.17;;;;;;;;;;5028675;28;20028;-43
2022/07/03 15:14:50;;;;;;;1.80;1.10;;;;;;;;;;5023576;28;20045;-43
2022/07/03 15:17:18;;;;;;;3.53;1.35;;;;;;;;;;5030011;28;20113;-42
2022/07/03 15:19:45;;;;;;;3.53;1.10;;;;;;;;;;5025482;28;20029;-43
2022/07/03 15:22:13;;;;;;;4.88;1.55;;;;;;;;;;5027997;28;20394;-42